Time;durP1;ratioP1;P1;durP2;ratioP2;P2;SDS_P1;SDS_P2;PMS_P1;PMS_P2;Temp;Humidity;BMP_temperature;BMP_pressure;BME280_temperature;BME280_humidity;BME280_pressure;Samples;Min_cycle;Max_cycle;Signal;HPM_P1;HPM_P2
2022/01/26 00:05:43;;;;;;;0.68;0.52;;;1.40;99.90;;;;;;4937011;29;20102;-79
2022/01/26 00:06:27;;;;;;;0.00;0.00;;;1.30;99.90;;;;;;4938736;29;20039;-85
2022/01/26 00:08:53;;;;;;;0.05;0.05;;;1.30;99.90;;;;;;5019407;28;20030;-84
2022/01/26 00:11:19;;;;;;;0.80;0.80;;;1.30;99.90;;;;;;5018953;28;20432;-79
2022/01/26 00:13:45;;;;;;;3.97;1.75;;;1.30;99.90;;;;;;5017130;28;20151;-79
2022/01/26 00:16:22;;;;;;;3.92;1.77;;;1.30;99.90;;;;;;5017467;28;20036;-85
2022/01/26 00:18:50;;;;;;;1.42;1.00;;;1.20;99.90;;;;;;5016850;28;20024;-85
2022/01/26 00:21:28;;;;;;;0.30;0.30;;;1.30;99.90;;;;;;4999317;28;20030;-79
2022/01/26 00:26:30;;;;;;;0.65;0.65;;;1.20;99.90;;;;;;5016715;28;20034;-85
2022/01/26 00:39:36;;;;;;;0.73;0.73;;;1.20;99.90;;;;;;5015948;28;20037;-79
2022/01/26 00:42:02;;;;;;;3.35;2.13;;;1.20;99.90;;;;;;5016280;28;20033;-79
2022/01/26 00:44:37;;;;;;;0.00;0.00;;;1.00;99.90;;;;;;5017250;28;20022;-85
2022/01/26 00:47:03;;;;;;;6.80;2.17;;;1.00;99.90;;;;;;5015748;28;20022;-85
2022/01/26 00:49:29;;;;;;;0.30;0.30;;;1.00;99.90;;;;;;5017420;28;20026;-82
2022/01/26 00:51:55;;;;;;;0.70;0.70;;;0.90;99.90;;;;;;5016486;28;20034;-79
2022/01/26 00:54:21;;;;;;;0.90;0.52;;;0.90;99.90;;;;;;5015259;28;20086;-85
2022/01/26 00:56:46;;;;;;;0.32;0.32;;;0.90;99.90;;;;;;5017559;28;20077;-79
2022/01/26 00:59:12;;;;;;;0.65;0.57;;;0.90;99.90;;;;;;5014511;28;20038;-79
2022/01/26 01:01:38;;;;;;;0.22;0.22;;;1.00;99.90;;;;;;5015894;28;20091;-80
2022/01/26 01:04:04;;;;;;;0.20;0.20;;;0.90;99.90;;;;;;5016335;28;20033;-85
2022/01/26 01:06:38;;;;;;;0.03;0.03;;;1.00;99.90;;;;;;5015306;28;20568;-85
2022/01/26 01:09:05;;;;;;;1.70;1.60;;;1.00;99.90;;;;;;5015338;28;20069;-79
2022/01/26 01:11:31;;;;;;;1.65;0.80;;;1.00;99.90;;;;;;5013733;28;20022;-79
2022/01/26 01:13:58;;;;;;;0.20;0.20;;;0.90;99.90;;;;;;5015284;28;20025;-85
2022/01/26 01:16:24;;;;;;;0.32;0.32;;;0.80;99.90;;;;;;5014707;28;20041;-79
2022/01/26 01:29:36;;;;;;;0.15;0.15;;;0.70;99.90;;;;;;5003785;28;20057;-85
2022/01/26 01:32:10;;;;;;;0.75;0.75;;;0.80;99.90;;;;;;5016237;28;20536;-85
2022/01/26 01:34:40;;;;;;;0.00;0.00;;;0.80;99.90;;;;;;5015577;28;20021;-85
2022/01/26 01:37:13;;;;;;;0.40;0.40;;;0.80;99.90;;;;;;5017073;28;20036;-78
2022/01/26 01:39:39;;;;;;;1.00;0.55;;;0.80;99.90;;;;;;5016813;28;20048;-84
2022/01/26 01:42:07;;;;;;;1.77;0.93;;;0.80;99.90;;;;;;5011851;28;20030;-85
2022/01/26 01:44:33;;;;;;;1.60;1.50;;;0.80;99.90;;;;;;5016754;28;20037;-79
2022/01/26 01:46:59;;;;;;;0.57;0.45;;;0.80;99.90;;;;;;5014945;28;20038;-85
2022/01/26 01:49:25;;;;;;;0.57;0.57;;;0.80;99.90;;;;;;5015196;28;20444;-84
2022/01/26 01:51:56;;;;;;;1.05;0.95;;;0.60;99.90;;;;;;5015726;28;20034;-80
2022/01/26 01:54:22;;;;;;;0.70;0.70;;;0.60;99.90;;;;;;5014782;28;20037;-85
2022/01/26 01:56:56;;;;;;;0.77;0.77;;;0.60;99.90;;;;;;5012856;28;20038;-85
2022/01/26 01:59:27;;;;;;;3.22;1.55;;;0.50;99.90;;;;;;5026656;28;20064;-85
2022/01/26 02:01:53;;;;;;;0.52;0.52;;;0.60;99.90;;;;;;5014846;28;20484;-85
2022/01/26 02:04:19;;;;;;;0.32;0.32;;;0.50;99.90;;;;;;5013643;28;20034;-85
2022/01/26 02:06:45;;;;;;;3.75;1.02;;;0.50;99.90;;;;;;5015472;28;20064;-85
2022/01/26 02:09:11;;;;;;;0.80;0.80;;;0.50;99.90;;;;;;5013195;28;20034;-85
2022/01/26 02:11:49;;;;;;;1.35;0.80;;;0.60;99.90;;;;;;5015415;28;20025;-79
2022/01/26 02:14:29;;;;;;;0.10;0.10;;;0.50;99.90;;;;;;5015854;28;20464;-85
2022/01/26 02:17:16;;;;;;;0.40;0.40;;;0.50;99.90;;;;;;5014315;28;20022;-79
2022/01/26 02:20:03;;;;;;;0.77;0.77;;;0.50;99.90;;;;;;5003345;28;20056;-79
2022/01/26 02:52:46;;;;;;;0.47;0.45;;;0.40;99.90;;;;;;5013880;28;20029;-85
2022/01/26 02:55:22;;;;;;;0.32;0.32;;;0.40;99.90;;;;;;5012275;28;20026;-79
2022/01/26 03:00:54;;;;;;;0.63;0.63;;;0.30;99.90;;;;;;5013428;28;20091;-85
2022/01/26 03:03:24;;;;;;;0.88;0.88;;;0.30;99.90;;;;;;5014788;28;20116;-79
2022/01/26 03:05:57;;;;;;;0.45;0.38;;;0.30;99.90;;;;;;5013755;28;20103;-83
2022/01/26 03:08:31;;;;;;;;;;;0.20;99.90;;;;;;5013531;28;20075;-84
2022/01/26 03:11:01;;;;;;;0.35;0.35;;;0.20;99.90;;;;;;5019914;28;19909;-79
2022/01/26 03:13:30;;;;;;;0.38;0.38;;;0.10;99.90;;;;;;5013677;28;20396;-84
2022/01/26 03:16:10;;;;;;;0.80;0.65;;;0.20;99.90;;;;;;5013035;28;20042;-85
2022/01/26 03:18:58;;;;;;;0.52;0.52;;;0.20;99.90;;;;;;5013098;28;20017;-85
2022/01/26 03:21:32;;;;;;;0.13;0.13;;;0.30;99.90;;;;;;5001749;28;20084;-84
2022/01/26 03:34:34;;;;;;;1.88;1.38;;;0.20;99.90;;;;;;5013195;28;20504;-84
2022/01/26 03:37:06;;;;;;;2.92;1.27;;;0.20;99.90;;;;;;5013625;28;20045;-85
2022/01/26 03:39:40;;;;;;;0.60;0.57;;;0.20;99.90;;;;;;5013913;28;20424;-85
2022/01/26 03:42:07;;;;;;;0.20;0.20;;;0.10;99.90;;;;;;5013317;28;20018;-84
2022/01/26 03:44:33;;;;;;;1.05;0.95;;;0.10;99.90;;;;;;5014966;28;20436;-84
2022/01/26 03:46:59;;;;;;;0.82;0.82;;;0.10;99.90;;;;;;5013332;28;20037;-84
2022/01/26 03:49:25;;;;;;;0.52;0.52;;;0.10;99.90;;;;;;5013146;28;20026;-85
2022/01/26 03:51:51;;;;;;;1.75;1.00;;;0.00;99.90;;;;;;5013732;28;20378;-79
2022/01/26 03:54:18;;;;;;;2.00;0.63;;;0.10;99.90;;;;;;5013456;28;20032;-82
2022/01/26 03:56:44;;;;;;;0.73;0.73;;;0.10;99.90;;;;;;5013665;28;20022;-84
2022/01/26 03:59:10;;;;;;;0.25;0.25;;;0.00;99.90;;;;;;5012788;28;20037;-85
2022/01/26 04:01:37;;;;;;;0.10;0.10;;;0.00;99.90;;;;;;5013063;28;20128;-78
2022/01/26 04:04:03;;;;;;;0.65;0.65;;;0.10;99.90;;;;;;5022691;28;20052;-79
2022/01/26 04:06:30;;;;;;;1.50;0.63;;;0.10;99.90;;;;;;5011827;28;20420;-84
2022/01/26 04:08:56;;;;;;;0.00;0.00;;;0.00;99.90;;;;;;5013066;28;20389;-85
2022/01/26 04:11:47;;;;;;;0.10;0.10;;;0.00;99.90;;;;;;5013434;28;20018;-84
2022/01/26 04:14:14;;;;;;;0.63;0.55;;;0.00;99.90;;;;;;5011831;28;20041;-84
2022/01/26 04:16:42;;;;;;;0.33;0.33;;;0.00;99.90;;;;;;5012400;28;20117;-78
2022/01/26 04:19:08;;;;;;;2.40;1.20;;;0.00;99.90;;;;;;5012998;28;20037;-84
2022/01/26 04:24:35;;;;;;;0.88;0.88;;;0.00;99.90;;;;;;5012798;28;20123;-84
2022/01/26 04:27:06;;;;;;;0.70;0.63;;;0.00;99.90;;;;;;5012869;28;20022;-85
2022/01/26 04:29:33;;;;;;;2.25;1.23;;;0.00;99.90;;;;;;5012512;28;20021;-84
2022/01/26 04:32:01;;;;;;;0.77;0.77;;;0.00;99.90;;;;;;5013173;28;20088;-83
2022/01/26 04:34:28;;;;;;;1.58;1.25;;;0.00;99.90;;;;;;5012809;28;20026;-85
2022/01/26 04:37:11;;;;;;;0.85;0.75;;;0.00;99.90;;;;;;5013832;28;20022;-80
2022/01/26 04:39:44;;;;;;;0.38;0.25;;;-0.10;99.90;;;;;;5011461;28;20385;-84
2022/01/26 04:42:16;;;;;;;0.00;0.00;;;-0.10;99.90;;;;;;5012765;28;20026;-84
2022/01/26 04:44:49;;;;;;;1.10;1.00;;;-0.20;99.90;;;;;;5011692;28;20025;-79
2022/01/26 04:47:14;;;;;;;0.65;0.65;;;-0.30;99.90;;;;;;5011926;28;20036;-84
2022/01/26 04:49:40;;;;;;;0.10;0.10;;;-0.40;99.90;;;;;;5015959;28;20033;-78
2022/01/26 04:52:06;;;;;;;0.57;0.57;;;-0.30;99.90;;;;;;5016906;28;20030;-84
2022/01/26 04:54:32;;;;;;;0.90;0.90;;;-0.30;99.90;;;;;;5015860;28;20461;-84
2022/01/26 04:56:57;;;;;;;1.55;0.82;;;-0.40;99.90;;;;;;5015576;28;20038;-78
2022/01/26 04:59:23;;;;;;;0.90;0.88;;;-0.50;99.90;;;;;;5016289;28;20072;-84
2022/01/26 05:01:49;;;;;;;0.13;0.13;;;-0.50;99.90;;;;;;5016532;28;20176;-79
2022/01/26 05:04:14;;;;;;;0.00;0.00;;;-0.40;99.90;;;;;;5018005;28;20476;-78
2022/01/26 05:06:40;;;;;;;0.00;0.00;;;-0.40;99.90;;;;;;5015916;28;20640;-78
2022/01/26 05:09:06;;;;;;;2.60;1.33;;;-0.40;99.90;;;;;;5015840;28;20036;-84
2022/01/26 05:11:38;;;;;;;0.15;0.15;;;-0.30;99.90;;;;;;5015050;28;20029;-78
2022/01/26 05:14:06;;;;;;;0.40;0.40;;;-0.30;99.90;;;;;;5014672;28;20050;-84
2022/01/26 05:16:32;;;;;;;0.75;0.75;;;-0.40;99.90;;;;;;5015275;28;20038;-78
2022/01/26 05:18:59;;;;;;;0.35;0.35;;;-0.40;99.90;;;;;;5017411;28;20018;-83
2022/01/26 05:21:27;;;;;;;0.15;0.15;;;-0.40;99.90;;;;;;5015585;28;20457;-84
2022/01/26 05:23:53;;;;;;;0.77;0.77;;;-0.40;99.90;;;;;;5017305;28;20509;-78
2022/01/26 05:26:19;;;;;;;0.47;0.47;;;-0.40;99.90;;;;;;5015614;28;20401;-84
2022/01/26 05:28:45;;;;;;;3.63;1.05;;;-0.40;99.90;;;;;;5014404;28;20083;-84
2022/01/26 05:31:11;;;;;;;0.20;0.20;;;-0.40;99.90;;;;;;5016449;28;20022;-84
2022/01/26 05:33:37;;;;;;;0.05;0.05;;;-0.50;99.90;;;;;;5013979;28;20112;-84
2022/01/26 05:36:03;;;;;;;0.00;0.00;;;-0.40;99.90;;;;;;5015018;28;20116;-84
2022/01/26 05:38:29;;;;;;;0.00;0.00;;;-0.40;99.90;;;;;;5016178;28;20052;-84
2022/01/26 05:40:56;;;;;;;0.22;0.22;;;-0.40;99.90;;;;;;5015219;28;20026;-84
2022/01/26 05:43:22;;;;;;;0.15;0.15;;;-0.40;99.90;;;;;;5015871;28;20049;-84
2022/01/26 05:45:52;;;;;;;0.90;0.90;;;-0.40;99.90;;;;;;5018374;28;20515;-86
2022/01/26 05:48:18;;;;;;;0.00;0.00;;;-0.30;99.90;;;;;;5015214;28;20033;-84
2022/01/26 05:50:55;;;;;;;0.40;0.38;;;-0.40;99.90;;;;;;5031980;28;20029;-84
2022/01/26 05:53:21;;;;;;;0.43;0.43;;;-0.40;99.90;;;;;;5012969;28;20030;-78
2022/01/26 05:55:53;;;;;;;1.25;1.10;;;-0.40;99.90;;;;;;5014824;28;20032;-83
2022/01/26 05:58:19;;;;;;;0.00;0.00;;;-0.30;99.90;;;;;;5010480;28;20058;-84
2022/01/26 06:00:45;;;;;;;0.10;0.10;;;-0.30;99.90;;;;;;5014996;28;20113;-84
2022/01/26 06:03:11;;;;;;;0.35;0.35;;;-0.30;99.90;;;;;;5015381;28;20068;-78
2022/01/26 06:05:37;;;;;;;0.00;0.00;;;-0.20;99.90;;;;;;5014662;28;20025;-83
2022/01/26 06:08:03;;;;;;;1.52;0.65;;;-0.30;99.90;;;;;;5011180;28;20029;-84
2022/01/26 06:10:28;;;;;;;1.55;0.93;;;-0.30;99.90;;;;;;5016205;28;20496;-84
2022/01/26 06:12:54;;;;;;;0.00;0.00;;;-0.40;99.90;;;;;;5015080;28;20030;-84
2022/01/26 06:15:20;;;;;;;0.93;0.55;;;-0.40;99.90;;;;;;5014789;28;20109;-83
2022/01/26 06:17:46;;;;;;;0.00;0.00;;;-0.40;99.90;;;;;;5011124;28;20088;-81
2022/01/26 06:20:12;;;;;;;0.20;0.20;;;-0.40;99.90;;;;;;5005772;28;20022;-78
2022/01/26 06:22:38;;;;;;;0.15;0.15;;;-0.40;99.90;;;;;;5015991;28;20026;-83
2022/01/26 06:25:06;;;;;;;0.00;0.00;;;-0.40;99.90;;;;;;5014563;28;20053;-84
2022/01/26 06:27:33;;;;;;;0.45;0.45;;;-0.30;99.90;;;;;;5009404;28;20152;-83
2022/01/26 06:29:59;;;;;;;0.03;0.03;;;-0.30;99.90;;;;;;5006134;28;20153;-77
2022/01/26 06:32:24;;;;;;;0.20;0.20;;;-0.30;99.90;;;;;;5012957;28;20497;-84
2022/01/26 06:34:50;;;;;;;0.00;0.00;;;-0.30;99.90;;;;;;5012909;28;20041;-78
2022/01/26 06:37:19;;;;;;;0.32;0.32;;;-0.30;99.90;;;;;;5012700;28;20029;-83
2022/01/26 06:39:45;;;;;;;0.15;0.15;;;-0.30;99.90;;;;;;5004781;28;20029;-84
2022/01/26 06:42:14;;;;;;;0.10;0.10;;;-0.30;99.90;;;;;;5013916;28;20021;-83
2022/01/26 06:45:07;;;;;;;0.20;0.20;;;-0.30;99.90;;;;;;5014130;28;20014;-82
2022/01/26 06:49:58;;;;;;;0.80;0.47;;;-0.20;99.90;;;;;;5011154;28;20269;-81
2022/01/26 06:52:24;;;;;;;0.52;0.52;;;-0.20;99.90;;;;;;5013455;28;20555;-84
2022/01/26 06:54:49;;;;;;;0.32;0.32;;;-0.30;99.90;;;;;;5011324;28;20029;-83
2022/01/26 06:57:15;;;;;;;0.00;0.00;;;-0.30;99.90;;;;;;5008310;28;20077;-83
2022/01/26 06:59:41;;;;;;;0.00;0.00;;;-0.40;99.90;;;;;;5009725;28;20034;-84
2022/01/26 07:02:07;;;;;;;0.25;0.25;;;-0.30;99.90;;;;;;5015774;28;20022;-83
2022/01/26 07:04:33;;;;;;;0.00;0.00;;;-0.30;99.90;;;;;;5010550;28;20375;-77
2022/01/26 07:06:58;;;;;;;0.40;0.40;;;-0.30;99.90;;;;;;5009713;28;20072;-79
2022/01/26 07:09:24;;;;;;;0.10;0.10;;;-0.30;99.90;;;;;;5002700;28;20030;-77
2022/01/26 07:11:50;;;;;;;1.20;0.50;;;-0.30;99.90;;;;;;4996353;28;20038;-83
2022/01/26 07:19:44;;;;;;;2.25;2.08;;;-0.30;99.90;;;;;;4997153;28;20026;-83
2022/01/26 07:20:12;;;;;;;0.20;0.20;;;-0.20;99.90;;;;;;5001997;28;20029;-77
2022/01/26 07:22:38;;;;;;;4.22;0.82;;;-0.20;99.90;;;;;;5004151;28;20057;-82
2022/01/26 07:25:04;;;;;;;0.20;0.20;;;-0.20;99.90;;;;;;5005892;28;20050;-83
2022/01/26 07:27:30;;;;;;;0.10;0.10;;;-0.20;99.90;;;;;;4998502;28;20022;-83
2022/01/26 07:29:56;;;;;;;0.90;0.80;;;-0.20;99.90;;;;;;5009988;28;20083;-83
2022/01/26 07:32:24;;;;;;;0.00;0.00;;;-0.30;99.90;;;;;;5016382;28;20454;-77
2022/01/26 07:34:50;;;;;;;0.47;0.38;;;-0.20;99.90;;;;;;5020854;28;20400;-77
2022/01/26 07:37:17;;;;;;;0.43;0.43;;;-0.20;99.90;;;;;;5004041;28;20033;-77
2022/01/26 07:39:46;;;;;;;0.10;0.10;;;-0.20;99.90;;;;;;4996920;28;20019;-83
2022/01/26 07:42:12;;;;;;;0.30;0.30;;;-0.20;99.90;;;;;;5010774;28;20471;-80
2022/01/26 07:44:38;;;;;;;0.38;0.38;;;-0.20;99.90;;;;;;5013505;28;20022;-77
2022/01/26 07:47:04;;;;;;;0.50;0.50;;;-0.20;99.90;;;;;;5009853;28;20163;-84
2022/01/26 07:49:30;;;;;;;0.15;0.15;;;-0.20;99.90;;;;;;5005208;28;20957;-78
2022/01/26 07:51:56;;;;;;;1.85;0.90;;;-0.20;99.90;;;;;;5006081;28;20031;-84
2022/01/26 07:54:22;;;;;;;0.20;0.20;;;-0.20;99.90;;;;;;5007262;28;20034;-83
2022/01/26 07:56:47;;;;;;;0.03;0.03;;;-0.20;99.90;;;;;;5013237;28;20029;-83
2022/01/26 07:59:14;;;;;;;0.22;0.22;;;-0.20;99.90;;;;;;5006016;28;20108;-84
2022/01/26 08:01:39;;;;;;;0.45;0.40;;;-0.20;99.90;;;;;;5005150;28;20030;-83
2022/01/26 08:04:05;;;;;;;0.30;0.30;;;-0.10;99.90;;;;;;5003177;28;20053;-85
2022/01/26 08:06:31;;;;;;;0.45;0.45;;;0.00;99.90;;;;;;5006443;28;20128;-74
2022/01/26 08:08:57;;;;;;;0.30;0.30;;;0.00;99.90;;;;;;5004888;28;20026;-81
2022/01/26 08:11:24;;;;;;;0.85;0.85;;;0.00;99.90;;;;;;5005007;28;20072;-78
2022/01/26 08:13:51;;;;;;;0.10;0.10;;;0.00;99.90;;;;;;5003658;28;20065;-75
2022/01/26 08:16:17;;;;;;;0.65;0.65;;;0.00;99.90;;;;;;5000953;28;20104;-79
2022/01/26 08:18:42;;;;;;;0.40;0.40;;;0.00;99.90;;;;;;4998865;28;21576;-80
2022/01/26 08:21:08;;;;;;;0.73;0.43;;;0.00;99.90;;;;;;5003319;28;20077;-76
2022/01/26 08:23:36;;;;;;;1.25;1.10;;;0.00;99.90;;;;;;5007632;28;20068;-76
2022/01/26 08:26:03;;;;;;;0.00;0.00;;;0.10;99.90;;;;;;5011013;28;20551;-82
2022/01/26 08:28:35;;;;;;;0.52;0.52;;;0.20;99.90;;;;;;5015712;28;20032;-82
2022/01/26 08:31:00;;;;;;;0.73;0.73;;;0.30;99.90;;;;;;5014072;28;20033;-80
2022/01/26 08:33:26;;;;;;;1.10;0.88;;;0.30;99.90;;;;;;5012805;28;20038;-80
2022/01/26 08:35:52;;;;;;;0.30;0.30;;;0.30;99.90;;;;;;5011027;28;20026;-80
2022/01/26 08:38:19;;;;;;;0.50;0.50;;;0.30;99.90;;;;;;5011880;28;20030;-78
2022/01/26 08:40:46;;;;;;;0.00;0.00;;;0.20;99.90;;;;;;5007723;28;20033;-81
2022/01/26 08:43:13;;;;;;;0.85;0.57;;;0.20;99.90;;;;;;5011471;28;20189;-82
2022/01/26 08:45:41;;;;;;;0.55;0.55;;;0.20;99.90;;;;;;5007652;28;20125;-86
2022/01/26 08:48:16;;;;;;;0.10;0.10;;;0.20;99.90;;;;;;5003061;28;20033;-82
2022/01/26 08:50:42;;;;;;;1.58;1.20;;;0.20;99.90;;;;;;5009159;28;20034;-80
2022/01/26 08:53:08;;;;;;;0.17;0.13;;;0.20;99.90;;;;;;5006615;28;20034;-76
2022/01/26 08:55:36;;;;;;;0.52;0.52;;;0.20;99.90;;;;;;5003121;28;20117;-85
2022/01/26 08:58:03;;;;;;;0.08;0.08;;;0.20;99.90;;;;;;5003935;28;20054;-82
2022/01/26 09:00:29;;;;;;;0.30;0.30;;;0.40;99.90;;;;;;5010447;28;20420;-78
2022/01/26 09:02:55;;;;;;;0.63;0.63;;;0.40;99.90;;;;;;5005940;28;20034;-81
2022/01/26 09:05:24;;;;;;;0.65;0.65;;;0.40;99.90;;;;;;5012125;28;20034;-81
2022/01/26 09:07:50;;;;;;;0.75;0.47;;;0.40;99.90;;;;;;5001110;28;21545;-82
2022/01/26 09:10:16;;;;;;;0.32;0.32;;;0.30;99.90;;;;;;5009297;28;20515;-83
2022/01/26 09:12:44;;;;;;;0.00;0.00;;;0.30;99.90;;;;;;5008810;28;20022;-76
2022/01/26 09:15:11;;;;;;;0.10;0.10;;;0.30;99.90;;;;;;5006798;28;20022;-82
2022/01/26 09:17:38;;;;;;;0.25;0.25;;;0.30;99.90;;;;;;5010974;28;20026;-82
2022/01/26 09:20:06;;;;;;;0.08;0.08;;;0.30;99.90;;;;;;5003649;28;20377;-83
2022/01/26 09:22:32;;;;;;;0.20;0.20;;;0.20;99.90;;;;;;5004744;28;20026;-77
2022/01/26 09:24:58;;;;;;;0.82;0.82;;;0.30;99.90;;;;;;5004258;28;20030;-82
2022/01/26 09:27:23;;;;;;;0.20;0.20;;;0.30;99.90;;;;;;5009154;28;20109;-83
2022/01/26 09:29:49;;;;;;;0.65;0.65;;;0.30;99.90;;;;;;5008546;28;20108;-83
2022/01/26 09:32:16;;;;;;;0.25;0.25;;;0.40;99.90;;;;;;5011559;28;20061;-86
2022/01/26 09:34:42;;;;;;;0.45;0.45;;;0.30;99.90;;;;;;5012123;28;20046;-78
2022/01/26 09:37:16;;;;;;;0.10;0.10;;;0.40;99.90;;;;;;5011079;28;20041;-81
2022/01/26 09:39:44;;;;;;;0.45;0.15;;;0.50;99.90;;;;;;5011670;28;20025;-82
2022/01/26 09:42:10;;;;;;;0.45;0.45;;;0.60;99.90;;;;;;5005418;28;20029;-82
2022/01/26 09:44:37;;;;;;;1.30;0.28;;;0.70;99.90;;;;;;5003274;28;20022;-79
2022/01/26 09:47:03;;;;;;;0.03;0.03;;;0.60;99.90;;;;;;5023463;28;20025;-77
2022/01/26 09:49:34;;;;;;;0.22;0.22;;;0.50;99.90;;;;;;5013383;28;20505;-80
2022/01/26 09:52:05;;;;;;;0.20;0.20;;;0.50;99.90;;;;;;5011484;28;20057;-79
2022/01/26 09:54:31;;;;;;;0.20;0.20;;;0.60;99.90;;;;;;5012916;28;20094;-78
2022/01/26 09:57:02;;;;;;;0.10;0.10;;;0.60;99.90;;;;;;5010827;28;20057;-80
2022/01/26 09:59:28;;;;;;;1.05;0.95;;;0.50;99.90;;;;;;5009052;28;20528;-80
2022/01/26 10:01:54;;;;;;;1.92;1.70;;;0.60;99.90;;;;;;5012669;28;20108;-80
2022/01/26 10:04:21;;;;;;;0.50;0.50;;;0.60;99.90;;;;;;5011794;28;20200;-78
2022/01/26 10:06:59;;;;;;;0.47;0.25;;;0.70;99.90;;;;;;5012197;28;20049;-82
2022/01/26 10:09:41;;;;;;;0.10;0.10;;;0.70;99.90;;;;;;5009593;28;20109;-84
2022/01/26 10:17:38;;;;;;;2.65;0.95;;;0.70;99.90;;;;;;5006836;28;20048;-77
2022/01/26 10:20:07;;;;;;;1.50;0.52;;;0.70;99.90;;;;;;5010724;28;20022;-78
2022/01/26 10:22:34;;;;;;;0.00;0.00;;;0.80;99.90;;;;;;5008485;28;20096;-77
2022/01/26 10:25:06;;;;;;;0.00;0.00;;;0.80;99.90;;;;;;5010425;28;20058;-78
2022/01/26 10:27:43;;;;;;;1.20;1.08;;;0.90;99.90;;;;;;5006726;28;20421;-79
2022/01/26 10:30:12;;;;;;;4.53;0.70;;;1.00;99.90;;;;;;5010348;28;20045;-78
2022/01/26 10:32:40;;;;;;;1.38;0.47;;;1.10;99.90;;;;;;5002623;28;20049;-77
2022/01/26 10:35:07;;;;;;;0.45;0.45;;;1.00;99.90;;;;;;5004944;28;20481;-82
2022/01/26 10:37:33;;;;;;;0.88;0.88;;;0.90;99.90;;;;;;5009957;28;20088;-79
2022/01/26 10:40:17;;;;;;;0.77;0.77;;;1.00;99.90;;;;;;5006095;28;20050;-80
2022/01/26 10:42:57;;;;;;;0.00;0.00;;;1.00;99.90;;;;;;5007081;28;20022;-86
2022/01/26 10:45:37;;;;;;;0.63;0.63;;;0.90;99.90;;;;;;5008792;28;20026;-81
2022/01/26 10:48:21;;;;;;;2.65;0.88;;;0.90;99.90;;;;;;5004413;28;20052;-78
2022/01/26 10:51:09;;;;;;;2.25;0.77;;;1.00;99.90;;;;;;5015914;28;20110;-81
2022/01/26 10:53:38;;;;;;;0.73;0.68;;;1.00;99.90;;;;;;5008180;28;20014;-80
2022/01/26 10:56:05;;;;;;;0.65;0.65;;;1.20;99.90;;;;;;5006509;28;20026;-77
2022/01/26 10:58:31;;;;;;;0.70;0.70;;;1.10;99.90;;;;;;5007071;28;20587;-83
2022/01/26 11:00:57;;;;;;;0.10;0.10;;;1.20;99.90;;;;;;5007394;28;20519;-84
2022/01/26 11:03:23;;;;;;;0.30;0.30;;;1.20;99.90;;;;;;5006097;28;20030;-76
2022/01/26 11:05:49;;;;;;;2.90;0.80;;;1.20;99.90;;;;;;5006159;28;20034;-86
2022/01/26 11:08:17;;;;;;;0.20;0.20;;;1.30;99.90;;;;;;5004131;28;20120;-80
2022/01/26 11:10:47;;;;;;;1.38;1.08;;;1.30;99.90;;;;;;5007864;28;20053;-80
2022/01/26 11:13:45;;;;;;;0.00;0.00;;;1.40;99.90;;;;;;5008316;28;20384;-79
2022/01/26 11:16:15;;;;;;;2.60;0.90;;;1.50;99.90;;;;;;4968333;28;20042;-83
2022/01/26 11:18:54;;;;;;;1.45;1.35;;;1.50;99.90;;;;;;5009544;28;20022;-83
2022/01/26 11:21:37;;;;;;;0.47;0.47;;;1.50;99.90;;;;;;5013791;28;20400;-82
2022/01/26 11:24:10;;;;;;;0.55;0.55;;;1.60;99.90;;;;;;5003581;28;20017;-82
2022/01/26 11:26:38;;;;;;;0.85;0.77;;;1.70;99.90;;;;;;5001819;28;20037;-78
2022/01/26 11:29:21;;;;;;;0.73;0.70;;;1.80;99.90;;;;;;5010116;28;20037;-80
2022/01/26 11:31:47;;;;;;;2.60;1.65;;;1.90;99.90;;;;;;5006721;28;20034;-83
2022/01/26 11:34:17;;;;;;;1.67;1.25;;;1.90;99.90;;;;;;5008636;28;20448;-82
2022/01/26 11:36:43;;;;;;;1.02;0.75;;;1.70;99.90;;;;;;5005739;28;20038;-82
2022/01/26 11:42:15;;;;;;;0.40;0.40;;;1.80;99.90;;;;;;5013752;28;20018;-85
2022/01/26 11:42:32;;;;;;;0.70;0.45;;;1.70;99.90;;;;;;5005156;28;20037;-86
2022/01/26 11:45:30;;;;;;;0.68;0.68;;;1.70;99.90;;;;;;4998244;28;20014;-85
2022/01/26 11:48:05;;;;;;;5.82;0.40;;;1.80;99.90;;;;;;5009977;28;20066;-85
2022/01/26 11:50:31;;;;;;;0.77;0.50;;;1.90;99.90;;;;;;5008941;28;20041;-80
2022/01/26 11:53:04;;;;;;;0.85;0.85;;;1.80;99.90;;;;;;5017512;28;20037;-79
2022/01/26 11:55:42;;;;;;;0.08;0.05;;;2.00;99.90;;;;;;5030391;28;20060;-84
2022/01/26 11:58:19;;;;;;;0.38;0.38;;;2.00;99.90;;;;;;5005289;28;20106;-80
2022/01/26 12:03:43;;;;;;;0.43;0.43;;;1.90;99.90;;;;;;5008193;28;20098;-78
2022/01/26 12:06:17;;;;;;;0.40;0.40;;;1.80;99.90;;;;;;5014112;28;20054;-78
2022/01/26 12:08:42;;;;;;;0.30;0.30;;;1.90;99.90;;;;;;5014258;28;20068;-81
2022/01/26 12:11:16;;;;;;;1.17;1.00;;;2.00;99.90;;;;;;5018503;28;20030;-81
2022/01/26 12:13:43;;;;;;;1.45;0.80;;;2.20;99.90;;;;;;5016857;28;20045;-78
2022/01/26 12:16:20;;;;;;;0.10;0.10;;;2.30;99.90;;;;;;5008119;28;20022;-80
2022/01/26 12:18:55;;;;;;;0.00;0.00;;;2.30;99.90;;;;;;5011705;28;20693;-79
2022/01/26 12:35:06;;;;;;;0.68;0.68;;;2.40;99.90;;;;;;5004356;28;20034;-81
2022/01/26 12:38:17;;;;;;;0.10;0.10;;;2.30;99.90;;;;;;5007009;28;20033;-81
2022/01/26 12:43:44;;;;;;;1.45;0.68;;;2.50;99.90;;;;;;5012034;28;20876;-80
2022/01/26 12:46:19;;;;;;;0.00;0.00;;;2.50;99.90;;;;;;5010275;28;20030;-77
2022/01/26 12:48:50;;;;;;;0.85;0.50;;;2.50;99.90;;;;;;5006095;28;20152;-83
2022/01/26 12:51:16;;;;;;;0.28;0.28;;;2.50;99.90;;;;;;5014595;28;20370;-82
2022/01/26 12:53:42;;;;;;;1.13;1.02;;;2.40;99.90;;;;;;5010670;28;20485;-83
2022/01/26 12:56:11;;;;;;;0.35;0.35;;;2.30;99.90;;;;;;5008657;28;20026;-77
2022/01/26 12:58:41;;;;;;;0.30;0.30;;;2.30;99.90;;;;;;5011643;28;20181;-79
2022/01/26 13:01:11;;;;;;;1.10;0.50;;;2.20;99.90;;;;;;5010530;28;20029;-77
2022/01/26 13:03:40;;;;;;;0.70;0.70;;;2.30;99.90;;;;;;5002134;28;20018;-79
2022/01/26 13:06:21;;;;;;;0.43;0.43;;;2.30;99.90;;;;;;5008391;28;20045;-77
2022/01/26 13:09:13;;;;;;;0.50;0.47;;;2.30;99.90;;;;;;5006981;28;20026;-82
2022/01/26 13:11:39;;;;;;;0.25;0.25;;;2.40;99.90;;;;;;5009034;28;20447;-78
2022/01/26 13:14:21;;;;;;;1.50;1.40;;;2.50;99.90;;;;;;5012115;28;20087;-79
2022/01/26 13:17:14;;;;;;;0.43;0.43;;;2.50;99.90;;;;;;5002699;28;20026;-84
2022/01/26 13:22:57;;;;;;;0.38;0.38;;;2.50;99.90;;;;;;5010252;28;20501;-84
2022/01/26 13:25:42;;;;;;;1.08;0.55;;;2.50;99.90;;;;;;5010902;28;20174;-83
2022/01/26 13:36:26;;;;;;;0.80;0.38;;;2.50;99.90;;;;;;5013996;28;20041;-83
2022/01/26 13:47:10;;;;;;;0.22;0.22;;;2.40;99.90;;;;;;5014789;28;20026;-83
2022/01/26 13:49:44;;;;;;;0.65;0.65;;;2.50;99.90;;;;;;5012681;28;20049;-79
2022/01/26 13:59:54;;;;;;;0.70;0.70;;;2.50;99.90;;;;;;5013236;28;20509;-83
2022/01/26 14:02:20;;;;;;;0.15;0.15;;;2.50;99.90;;;;;;5006572;28;20102;-83
2022/01/26 14:04:46;;;;;;;0.20;0.20;;;2.50;99.90;;;;;;5008891;28;20030;-83
2022/01/26 14:07:12;;;;;;;0.22;0.22;;;2.60;99.90;;;;;;5028971;28;20053;-80
2022/01/26 14:09:38;;;;;;;0.90;0.90;;;2.60;99.90;;;;;;5004199;28;20481;-81
2022/01/26 14:12:05;;;;;;;0.45;0.45;;;2.50;99.90;;;;;;5012575;28;20060;-83
2022/01/26 14:14:36;;;;;;;3.42;1.23;;;2.70;99.90;;;;;;5013554;28;20091;-83
2022/01/26 14:17:04;;;;;;;1.15;0.95;;;2.70;99.90;;;;;;5012527;28;20036;-82
2022/01/26 14:27:41;;;;;;;0.20;0.20;;;2.50;99.90;;;;;;5004789;28;20034;-82
2022/01/26 14:30:28;;;;;;;0.80;0.80;;;2.50;99.90;;;;;;5004079;28;20108;-83
2022/01/26 15:35:23;;;;;;;1.55;1.42;;;2.30;99.90;;;;;;5010490;28;20532;-83
2022/01/26 16:05:35;;;;;;;1.65;1.55;;;2.20;99.90;;;;;;5010137;28;20147;-87
2022/01/26 16:08:25;;;;;;;0.25;0.25;;;2.20;99.90;;;;;;5011460;28;20443;-85
2022/01/26 16:28:00;;;;;;;0.30;0.30;;;2.10;99.90;;;;;;5002596;28;20076;-86
2022/01/26 18:13:16;;;;;;;4.22;1.42;;;1.70;99.90;;;;;;5013015;28;20085;-85
2022/01/26 18:50:38;;;;;;;0.82;0.63;;;1.40;99.90;;;;;;5011960;28;20037;-84
2022/01/26 18:53:04;;;;;;;1.27;0.88;;;1.40;99.90;;;;;;5008284;28;20074;-84
2022/01/26 18:55:29;;;;;;;1.13;0.98;;;1.30;99.90;;;;;;5011705;28;20057;-84
2022/01/26 18:57:55;;;;;;;1.02;1.02;;;1.20;99.90;;;;;;5006212;28;20596;-83
2022/01/26 19:00:21;;;;;;;0.20;0.20;;;1.10;99.90;;;;;;5008468;28;20080;-84
2022/01/26 19:02:46;;;;;;;0.57;0.57;;;1.10;99.90;;;;;;5000696;28;20069;-84
2022/01/26 19:05:13;;;;;;;0.20;0.20;;;1.10;99.90;;;;;;5003224;28;20386;-84
2022/01/26 19:07:38;;;;;;;0.80;0.77;;;1.10;99.90;;;;;;5009228;28;20053;-84
2022/01/26 19:10:05;;;;;;;0.45;0.45;;;1.00;99.90;;;;;;5009092;28;20478;-85
2022/01/26 19:12:34;;;;;;;0.00;0.00;;;1.00;99.90;;;;;;5012426;28;20017;-79
2022/01/26 19:15:05;;;;;;;0.00;0.00;;;1.00;99.90;;;;;;5004915;28;20079;-84
2022/01/26 19:17:36;;;;;;;5.47;2.05;;;1.00;99.90;;;;;;4998611;28;20034;-79
2022/01/26 19:25:55;;;;;;;0.00;0.00;;;0.90;99.90;;;;;;5012080;28;20091;-84
2022/01/26 19:40:00;;;;;;;0.10;0.10;;;1.00;99.90;;;;;;5013820;28;20574;-83
2022/01/26 19:44:41;;;;;;;0.00;0.00;;;1.00;99.90;;;;;;5004958;28;20030;-84
2022/01/26 19:52:23;;;;;;;0.30;0.30;;;1.00;99.90;;;;;;5002950;28;20041;-84
2022/01/26 19:54:50;;;;;;;0.32;0.32;;;0.90;99.90;;;;;;5009959;28;20489;-83
2022/01/26 19:57:18;;;;;;;0.50;0.50;;;0.90;99.90;;;;;;5006914;28;20050;-84